• Join FlightAware (Why Join?)
  • Login
  • US Flag 
10:46PM EDT


 

Airport Tracker/Info


-or-


 

Live Flight TrackerFlight Track Log ✈ SKW6330 ✈ 29-Apr-2013 ✈ KFAT - KLAX

Flight Track Log - Related Links

Times and Time Zones

All times are in EDT time to prevent confusion due to time zone crossing. See the SKW6330 flight status page for this flight to view local times or setup timezone preferences in your user account.

Time Position Orientation Groundspeed Altitude Reporting Facility
EDT Latitude Longitude Course Direction KTS MPH feet Rate Location/Type
10:45PM 36.7808 -119.7656 141° Southeast 150 173 2,400  Level Oakland Center
10:46PM 36.7367 -119.7472 162° South 186 214 3,800 1,440 Climbing Oakland Center
10:47PM 36.6853 -119.7208 158° South 199 229 5,400 1,740 Climbing Oakland Center
10:48PM 36.7508 -119.7421 158° South  Level FlightAware Approximate
10:48PM 36.6217 -119.6875 157° South 205 236 7,400  Level Oakland Center
10:49PM 36.6637 -119.7069 158° South  Level FlightAware Approximate
10:49PM 36.5681 -119.6594 157° South 207 238 8,900  Level Oakland Center
10:50PM 36.6032 -119.6699 141° Southeast  Level FlightAware Approximate
10:50PM 36.5119 -119.6286 156° South 219 252 10,300  Level Oakland Center
10:51PM 36.4542 -119.5981 157° South 224 258 11,500 1,080 Climbing Oakland Center
10:52PM 36.3928 -119.5656 157° South 237 273 12,600 900 Climbing Oakland Center
10:53PM 36.3311 -119.5339 158° South 240 276 13,400 780 Climbing Oakland Center
10:54PM 36.2694 -119.5014 157° South 241 277 14,300 780 Climbing Oakland Center
10:55PM 36.2072 -119.4669 156° South 244 281 15,100 780 Climbing Oakland Center
10:56PM 36.1450 -119.4339 157° South 243 280 16,000 780 Climbing Oakland Center
10:57PM 36.0822 -119.3989 156° South 245 282 16,700 720 Climbing Oakland Center
10:58PM 36.0189 -119.3631 155° Southeast 251 289 17,500 900 Climbing Oakland Center
10:59PM 35.9433 -119.3200 155° Southeast 250 288 18,600 900 Climbing Oakland Center
11:00PM 35.8842 -119.2822 153° Southeast 244 281 19,400 720 Climbing Oakland Center
11:01PM 35.8242 -119.2447 153° Southeast 242 278 20,100 600 Climbing Oakland Center
11:02PM 35.7672 -119.2083 153° Southeast 236 272 20,700 480 Climbing Oakland Center
11:03PM 35.7061 -119.1728 155° Southeast 239 275 21,200 480 Climbing Oakland Center
11:04PM 35.6464 -119.1378 155° Southeast 239 275 21,800 540 Climbing Oakland Center
11:05PM 35.6214 -119.1253 158° South 243 280 22,000 480 Climbing Los Angeles Center
11:06PM 35.5586 -119.0928 157° South 243 280 22,500 60 Climbing Los Angeles Center
11:07PM 35.4950 -119.0567 155° Southeast 249 287 22,200 -600 Descending Los Angeles Center
11:08PM 35.4283 -119.0189 155° Southeast 261 300 21,400 -960 Descending Los Angeles Center
11:09PM 35.3658 -118.9811 154° Southeast 253 291 20,300 -1,080 Descending Los Angeles Center
11:10PM 35.3067 -118.9436 153° Southeast 245 282 19,200 -1,380 Descending Los Angeles Center
11:11PM 35.2353 -118.8997 153° Southeast 240 276 17,500 -1,380 Descending Los Angeles Center
11:12PM 35.1756 -118.8631 153° Southeast 240 276 16,400 -1,140 Descending Los Angeles Center
11:13PM 35.1153 -118.8261 153° Southeast 242 278 15,200 -720 Descending Los Angeles Center
11:14PM 35.0567 -118.7892 153° Southeast 238 274 15,000 -120 Descending Los Angeles Center
11:15PM 34.9989 -118.7544 154° Southeast 234 269 15,000  Level Los Angeles Center
11:16PM 34.9394 -118.7217 156° South 234 269 15,000  Level Los Angeles Center
11:17PM 34.8733 -118.6875 157° South 236 272 15,000  Level Los Angeles Center
11:18PM 34.8131 -118.6547 156° South 239 275 15,000 -540 Level Los Angeles Center
11:19PM 34.7506 -118.6203 156° South 247 284 14,000 -1,140 Descending Los Angeles Center
11:20PM 34.6922 -118.5903 157° South 229 264 12,700 -1,320 Descending Los Angeles Center
11:21PM 34.6333 -118.5561 154° Southeast 235 270 11,300 -840 Descending Los Angeles Center
11:22PM 34.5772 -118.5200 152° Southeast 226 260 11,000 -420 Descending Los Angeles Center
11:23PM 34.5100 -118.4750 151° Southeast 229 264 10,500 -780 Descending Los Angeles Center
11:24PM 34.4542 -118.4419 154° Southeast 224 258 9,400 -1,080 Descending Los Angeles Center
11:25PM 34.3989 -118.4119 156° South 217 250 8,300 -1,020 Descending Los Angeles Center
11:26PM 34.3464 -118.3836 156° South 209 241 7,300 -1,080 Descending Los Angeles Center
11:28PM 34.2833 -118.3500 156° South 209 241 6,100 -660 Descending Southern California TRACON
11:28PM 34.2417 -118.3206 150° Southeast 210 242 6,000 -60 Descending Los Angeles Center
11:29PM 34.1894 -118.2864 152° Southeast 211 243 6,000  Level Los Angeles Center
11:31PM 34.1267 -118.2467 152° Southeast 212 244 6,000 -60 Level Los Angeles Center
11:32PM 34.0767 -118.2136 151° Southeast 208 239 5,900 -540 Descending Los Angeles Center
11:33PM 34.0472 -118.1586 123° Southeast 220 253 4,900 -960 Descending Los Angeles Center
11:34PM 34.0500 -118.0833 87° East 212 244 4,000 -1,080 Descending Southern California TRACON
11:35PM 34.0000 -118.0667 165° South 208 239 2,700 -720 Descending Southern California TRACON
11:36PM 33.9833 -118.1167 248° West 185 213 2,600 -60 Descending Southern California TRACON
11:37PM 33.9833 -118.1833 270° West 183 211 2,600  Level Southern California TRACON